»·PEaware :: N664TL KSAN-KSNA

N664TL :: KSAN-KSNA

FLIGHT INFORMATION

Flight Status: Arrived
Operator: Privately registered:
United States
More flights under this callsign
Pilot: Anonymous 328 (328)
Aircraft: Unknown
(G500)
More flights by this aircraft type
Origin: KSAN San Diego Intl-Lindbergh
United States
Destination: KSNA John Wayne-Orange Co
United States
More flights between these airports :: More routes between these airports
Route: +CWARD2 SLI
File this flight plan on PilotEdge
Remarks:
Altitude:
(Current/Filed)
10,000ft
Speed:
(Current/Filed)
0kts
Departed: 04-Oct-18 01:42 PM
Arrived: 04-Oct-18 02:29 PM
Distance/Time
Traveled:
66nm/0:47
Distance/Time
To Go:
Arrived

Flight Plot

Page will automatically refresh every two minutes.

Flight plan parsing failed; only flown route is shown


Map Options




Map Legend


Flown Route
Filed Route
Departure Airport
Arrival Airport
Navaid (VOR, NDB)
Fix

Horizontal Profiles

Position Reports

Time Latitude Longitude Heading Altitude Ground
Speed
04-Oct-18 12:29 32.732899 -117.179199 104 21ft 0kts
04-Oct-18 12:30 32.732899 -117.179199 104 21ft 0kts
04-Oct-18 12:31 32.732899 -117.179199 104 21ft 0kts
04-Oct-18 12:32 32.732899 -117.179199 104 21ft 0kts
04-Oct-18 12:33 32.732899 -117.179199 104 21ft 0kts
04-Oct-18 12:34 32.732899 -117.179199 104 21ft 0kts
04-Oct-18 12:35 32.732899 -117.179199 104 21ft 0kts
04-Oct-18 12:36 32.732899 -117.179199 104 21ft 0kts
04-Oct-18 12:37 32.732899 -117.179199 104 21ft 0kts
04-Oct-18 12:38 32.732899 -117.179199 104 21ft 0kts
04-Oct-18 12:39 32.732899 -117.179199 104 21ft 0kts
04-Oct-18 12:40 32.732899 -117.179199 104 21ft 0kts
04-Oct-18 12:41 32.732899 -117.179199 104 21ft 0kts
04-Oct-18 12:42 32.732899 -117.179199 104 21ft 0kts
04-Oct-18 12:43 32.732899 -117.179199 104 21ft 0kts
04-Oct-18 12:44 32.732899 -117.179199 104 21ft 0kts
04-Oct-18 12:45 32.732899 -117.179199 104 21ft 0kts
04-Oct-18 12:46 32.732899 -117.179199 104 21ft 0kts
04-Oct-18 12:47 32.732899 -117.179199 104 21ft 0kts
04-Oct-18 12:48 32.732899 -117.179199 104 21ft 0kts
04-Oct-18 12:55 32.732899 -117.179199 104 21ft 0kts
04-Oct-18 12:56 32.732899 -117.179199 104 21ft 0kts
04-Oct-18 12:57 32.732899 -117.179199 104 21ft 0kts
04-Oct-18 12:58 32.732899 -117.179199 104 21ft 0kts
04-Oct-18 12:59 32.732899 -117.179199 104 21ft 0kts
04-Oct-18 13:00 32.732899 -117.179199 104 21ft 0kts
04-Oct-18 13:01 32.732899 -117.179199 104 21ft 0kts
04-Oct-18 13:02 32.732899 -117.179199 104 21ft 0kts
04-Oct-18 13:03 32.732899 -117.179199 104 21ft 0kts
04-Oct-18 13:04 32.732899 -117.179199 104 21ft 0kts
04-Oct-18 13:05 32.732899 -117.179199 104 21ft 0kts
04-Oct-18 13:06 32.732899 -117.179199 104 21ft 0kts
04-Oct-18 13:07 32.732899 -117.179199 104 21ft 0kts
04-Oct-18 13:08 32.732899 -117.179199 104 21ft 0kts
04-Oct-18 13:09 32.732899 -117.179199 104 21ft 0kts
04-Oct-18 13:10 32.732899 -117.179199 104 21ft 0kts
04-Oct-18 13:11 32.732899 -117.179199 104 21ft 0kts
04-Oct-18 13:12 32.732899 -117.179199 104 21ft 0kts
04-Oct-18 13:13 32.732899 -117.179199 104 21ft 0kts
04-Oct-18 13:14 32.732899 -117.179199 104 21ft 0kts
04-Oct-18 13:15 32.732899 -117.179199 104 21ft 0kts
04-Oct-18 13:16 32.732899 -117.179199 104 21ft 0kts
04-Oct-18 13:17 32.732899 -117.179199 104 21ft 0kts
04-Oct-18 13:18 32.732899 -117.179199 104 21ft 0kts
04-Oct-18 13:19 32.732899 -117.179199 104 21ft 0kts
04-Oct-18 13:20 32.732899 -117.179199 104 21ft 0kts
04-Oct-18 13:21 32.732899 -117.179199 104 21ft 0kts
04-Oct-18 13:22 32.732899 -117.179199 104 21ft 0kts
04-Oct-18 13:23 32.732899 -117.179199 104 21ft 0kts
04-Oct-18 13:24 32.732899 -117.179199 104 21ft 0kts
04-Oct-18 13:25 32.732899 -117.179199 104 21ft 0kts
04-Oct-18 13:26 32.732899 -117.179199 104 21ft 0kts
04-Oct-18 13:27 32.732899 -117.179199 104 21ft 0kts
04-Oct-18 13:28 32.732899 -117.179199 104 21ft 0kts
04-Oct-18 13:29 32.732899 -117.179199 104 21ft 0kts
04-Oct-18 13:30 32.732899 -117.179199 104 21ft 0kts
04-Oct-18 13:31 32.732964 -117.179306 252 21ft 6kts
04-Oct-18 13:32 32.732067 -117.178818 105 21ft 0kts
04-Oct-18 13:33 32.731827 -117.177780 105 21ft 3kts
04-Oct-18 13:34 32.731125 -117.175682 143 21ft 2kts
04-Oct-18 13:35 32.731064 -117.175621 143 21ft 0kts
04-Oct-18 13:36 32.731064 -117.175621 143 21ft 0kts
04-Oct-18 13:37 32.731064 -117.175621 143 21ft 0kts
04-Oct-18 13:38 32.731064 -117.175621 143 21ft 0kts
04-Oct-18 13:39 32.731064 -117.175621 143 21ft 0kts
04-Oct-18 13:40 32.731064 -117.175621 143 21ft 0kts
04-Oct-18 13:41 32.731064 -117.175621 143 21ft 0kts
04-Oct-18 13:42 32.731064 -117.175621 143 21ft 0kts
04-Oct-18 13:43 32.730450 -117.175224 178 21ft 6kts
04-Oct-18 13:44 32.732983 -117.187378 287 92ft 161kts
04-Oct-18 13:45 32.754513 -117.237061 302 5290ft 171kts
04-Oct-18 13:46 32.786087 -117.294312 307 8997ft 259kts
04-Oct-18 13:47 32.831203 -117.368279 306 10028ft 297kts
04-Oct-18 13:48 32.880726 -117.444229 307 10023ft 289kts
04-Oct-18 13:49 32.929073 -117.519417 307 10021ft 284kts
04-Oct-18 13:50 32.954243 -117.558624 307 10021ft 282kts
04-Oct-18 13:51 32.954243 -117.558624 307 10021ft 282kts
04-Oct-18 13:52 32.954243 -117.558624 307 10021ft 282kts
04-Oct-18 13:53 32.954243 -117.558624 307 10021ft 282kts
04-Oct-18 13:54 32.954243 -117.558624 307 10021ft 282kts
04-Oct-18 13:55 32.954243 -117.558624 307 10021ft 282kts
04-Oct-18 13:56 32.954243 -117.558624 307 10021ft 282kts
04-Oct-18 13:57 32.954243 -117.558624 307 10021ft 282kts
04-Oct-18 13:58 32.954243 -117.558624 307 10021ft 282kts
04-Oct-18 13:59 32.954243 -117.558624 307 10021ft 282kts
04-Oct-18 14:00 32.954243 -117.558624 307 10021ft 282kts
04-Oct-18 14:01 32.954243 -117.558624 307 10021ft 282kts
04-Oct-18 14:02 32.954243 -117.558624 307 10021ft 282kts
04-Oct-18 14:03 32.954243 -117.558624 307 10021ft 282kts
04-Oct-18 14:04 32.954243 -117.558624 307 10021ft 282kts
04-Oct-18 14:05 32.954243 -117.558624 307 10021ft 282kts
04-Oct-18 14:06 32.954243 -117.558624 307 10021ft 282kts
04-Oct-18 14:07 32.955822 -117.561089 306 10018ft 283kts
04-Oct-18 14:08 33.003056 -117.634789 307 10004ft 255kts
04-Oct-18 14:09 33.041237 -117.694519 307 10013ft 215kts
04-Oct-18 14:10 33.089005 -117.755127 319 10035ft 291kts
04-Oct-18 14:11 33.155590 -117.823006 319 10018ft 316kts
04-Oct-18 14:12 33.226120 -117.870186 348 10017ft 283kts
04-Oct-18 14:13 33.304089 -117.889297 348 10022ft 288kts
04-Oct-18 14:14 33.383121 -117.909363 345 10020ft 290kts
04-Oct-18 14:15 33.459900 -117.936401 346 10028ft 296kts
04-Oct-18 14:16 33.537514 -117.964874 343 10023ft 289kts
04-Oct-18 14:17 33.614456 -117.993065 342 10020ft 288kts
04-Oct-18 14:18 33.678711 -118.040581 282 9522ft 284kts
04-Oct-18 14:19 33.633614 -118.102028 191 7832ft 278kts
04-Oct-18 14:20 33.558731 -118.120605 191 5779ft 269kts
04-Oct-18 14:21 33.488708 -118.138054 191 4999ft 232kts
04-Oct-18 14:22 33.427204 -118.150970 167 4996ft 209kts
04-Oct-18 14:23 33.419502 -118.094879 61 3776ft 210kts
04-Oct-18 14:24 33.447048 -118.033997 61 3012ft 203kts
04-Oct-18 14:25 33.483212 -117.991409 29 3004ft 179kts
04-Oct-18 14:26 33.528168 -117.961838 27 3021ft 163kts
04-Oct-18 14:27 33.568626 -117.936546 28 2268ft 147kts
04-Oct-18 14:28 33.601677 -117.915627 28 1546ft 129kts
04-Oct-18 14:29 33.633293 -117.895416 28 855ft 129kts
04-Oct-18 14:30 33.664997 -117.875565 28 172ft 127kts
04-Oct-18 14:31 33.677559 -117.867676 10 52ft 2kts
04-Oct-18 14:32 33.677742 -117.869034 209 53ft 0kts

Navigation Log

Ident Type
Flight plan parsing failed, navigation log unavailable